createdAt,value
2022-10-13T00:01:16.370Z,26.75
2022-10-13T00:04:19.458Z,26.35
2022-10-13T00:07:22.474Z,26.56
2022-10-13T00:10:26.624Z,26.54
2022-10-13T00:13:29.930Z,26.64
2022-10-13T00:16:33.448Z,26.56
2022-10-13T00:19:37.337Z,26.57
2022-10-13T00:22:40.372Z,26.47
2022-10-13T00:25:48.795Z,26.33
2022-10-13T00:28:53.122Z,26.24
2022-10-13T00:31:56.378Z,26.51
2022-10-13T00:34:59.513Z,26.46
2022-10-13T00:38:05.138Z,26.29
2022-10-13T00:41:08.439Z,26.32
2022-10-13T00:44:48.711Z,26.24
2022-10-13T00:47:56.109Z,26.01
2022-10-13T00:50:59.530Z,26.21
2022-10-13T00:54:04.302Z,25.59
2022-10-13T00:57:08.731Z,25.66
2022-10-13T01:00:13.539Z,25.86
2022-10-13T01:03:16.628Z,26.06
2022-10-13T01:06:23.583Z,25.70
2022-10-13T01:09:27.091Z,25.73
2022-10-13T01:12:30.058Z,25.79
2022-10-13T01:15:36.849Z,25.87
2022-10-13T01:18:57.971Z,25.92
2022-10-13T01:22:28.042Z,26.01
2022-10-13T01:25:35.181Z,25.94
2022-10-13T01:29:08.781Z,25.42
2022-10-13T01:32:32.430Z,25.63
2022-10-13T01:36:06.377Z,25.71
2022-10-13T01:39:55.773Z,25.65
2022-10-13T01:43:20.042Z,25.72
2022-10-13T01:46:24.365Z,25.71
2022-10-13T01:49:29.535Z,25.52
2022-10-13T01:52:37.287Z,24.89
2022-10-13T01:55:58.461Z,25.18
2022-10-13T01:59:05.935Z,25.36
2022-10-13T02:02:20.143Z,25.57
2022-10-13T02:05:41.503Z,25.57
2022-10-13T02:09:01.937Z,25.52
2022-10-13T02:12:35.532Z,25.37
2022-10-13T02:15:42.465Z,25.21
2022-10-13T02:18:45.590Z,25.23
2022-10-13T02:21:48.892Z,25.10
2022-10-13T02:24:52.052Z,25.18
2022-10-13T02:27:55.329Z,25.17
2022-10-13T02:30:59.086Z,24.93
2022-10-13T02:34:02.240Z,25.16
2022-10-13T02:37:05.270Z,25.14
2022-10-13T02:40:08.912Z,25.43
2022-10-13T02:43:12.071Z,25.58
2022-10-13T02:46:15.125Z,25.78
2022-10-13T02:49:18.268Z,25.76
2022-10-13T02:52:21.475Z,25.39
2022-10-13T02:55:27.105Z,25.07
2022-10-13T02:58:30.118Z,24.91
2022-10-13T03:01:33.335Z,25.51
2022-10-13T03:04:36.457Z,25.24
2022-10-13T03:07:40.940Z,25.12
2022-10-13T03:10:44.035Z,24.99
2022-10-13T03:13:47.057Z,24.98
2022-10-13T03:16:50.259Z,25.04
2022-10-13T03:19:53.515Z,24.93
2022-10-13T03:22:56.556Z,24.94
2022-10-13T03:25:59.948Z,24.99
2022-10-13T03:29:03.344Z,25.26
2022-10-13T03:32:06.610Z,25.27
2022-10-13T03:35:09.858Z,25.24
2022-10-13T03:38:13.088Z,25.28
2022-10-13T03:41:18.485Z,25.45
2022-10-13T03:44:20.867Z,25.48
2022-10-13T03:47:23.928Z,25.38
2022-10-13T03:50:27.100Z,25.28
2022-10-13T03:53:30.135Z,25.24
2022-10-13T03:56:33.144Z,25.35
2022-10-13T03:59:37.069Z,25.29
2022-10-13T04:02:40.300Z,25.32
2022-10-13T04:05:46.269Z,25.19
2022-10-13T04:08:49.707Z,25.27
2022-10-13T04:11:54.237Z,25.06
2022-10-13T04:14:57.270Z,25.09
2022-10-13T04:18:00.306Z,25.20
2022-10-13T04:21:07.534Z,25.11
2022-10-13T04:24:13.256Z,25.09
2022-10-13T04:27:16.326Z,24.81
2022-10-13T04:30:19.381Z,24.70
2022-10-13T04:33:22.444Z,24.77
2022-10-13T04:36:26.041Z,24.85
2022-10-13T04:39:29.121Z,25.04
2022-10-13T04:42:32.214Z,24.83
2022-10-13T04:45:35.258Z,24.54
2022-10-13T04:48:38.377Z,24.57
2022-10-13T04:51:42.487Z,24.89
2022-10-13T04:54:45.490Z,24.58
2022-10-13T04:57:48.511Z,24.52
2022-10-13T05:00:51.772Z,24.63
2022-10-13T05:04:00.516Z,24.65
2022-10-13T05:07:17.421Z,24.70
2022-10-13T05:10:22.259Z,24.62
2022-10-13T05:13:25.892Z,24.66
2022-10-13T05:16:28.980Z,24.62
2022-10-13T05:19:33.002Z,24.49
2022-10-13T05:22:36.044Z,24.26
2022-10-13T05:25:42.312Z,24.28
2022-10-13T05:28:45.462Z,24.35
2022-10-13T05:31:48.517Z,24.47
2022-10-13T05:34:51.737Z,24.21
2022-10-13T05:37:54.906Z,24.41
2022-10-13T05:41:16.301Z,24.25
2022-10-13T05:44:19.330Z,24.21
2022-10-13T05:47:22.379Z,24.41
2022-10-13T05:50:25.641Z,24.29
2022-10-13T05:53:34.392Z,23.99
2022-10-13T05:56:42.373Z,23.72
2022-10-13T06:00:12.313Z,23.75
2022-10-13T06:03:17.977Z,23.63
2022-10-13T06:06:21.090Z,23.67
2022-10-13T06:09:24.233Z,23.68
2022-10-13T06:12:27.428Z,23.56
2022-10-13T06:15:30.419Z,23.44
2022-10-13T06:18:33.510Z,23.45
2022-10-13T06:21:36.741Z,23.85
2022-10-13T06:24:39.829Z,23.77
2022-10-13T06:27:42.969Z,23.54
2022-10-13T06:30:46.932Z,23.43
2022-10-13T06:33:49.936Z,23.59
2022-10-13T06:36:53.009Z,23.54
2022-10-13T06:39:55.978Z,23.81
2022-10-13T06:42:59.018Z,23.59
2022-10-13T06:46:02.290Z,23.53
2022-10-13T06:49:05.312Z,23.21
2022-10-13T06:52:08.541Z,22.92
2022-10-13T06:55:13.624Z,22.89
2022-10-13T06:58:16.650Z,22.32
2022-10-13T07:01:19.837Z,22.07
2022-10-13T07:04:22.856Z,21.42
2022-10-13T07:07:27.990Z,20.44
2022-10-13T07:10:31.015Z,20.29
2022-10-13T07:13:36.517Z,20.13
2022-10-13T07:16:41.239Z,20.18
2022-10-13T07:19:44.450Z,20.39
2022-10-13T07:22:47.547Z,20.77
2022-10-13T07:25:50.565Z,21.13
2022-10-13T07:28:53.849Z,20.92
2022-10-13T07:31:56.985Z,21.06
2022-10-13T07:34:59.953Z,20.96
2022-10-13T07:38:03.054Z,21.04
2022-10-13T07:41:08.095Z,20.92
2022-10-13T07:44:11.162Z,20.80
2022-10-13T07:47:14.186Z,20.20
2022-10-13T07:50:17.391Z,20.45
2022-10-13T07:53:20.517Z,21.03
2022-10-13T07:56:23.580Z,20.71
2022-10-13T07:59:26.804Z,20.26
2022-10-13T08:02:29.848Z,20.35
2022-10-13T08:05:32.948Z,20.64
2022-10-13T08:08:36.142Z,20.96
2022-10-13T08:11:41.092Z,20.74
2022-10-13T08:14:44.725Z,20.68
2022-10-13T08:17:47.821Z,20.95
2022-10-13T08:20:50.905Z,20.90
2022-10-13T08:23:53.918Z,21.06
2022-10-13T08:26:56.960Z,21.36
2022-10-13T08:30:00.054Z,20.87
2022-10-13T08:33:03.120Z,20.73
2022-10-13T08:36:06.289Z,20.71
2022-10-13T08:39:09.337Z,20.83
2022-10-13T08:42:16.062Z,20.44
2022-10-13T08:45:40.904Z,20.31
2022-10-13T08:48:44.714Z,20.67
2022-10-13T08:51:47.761Z,20.60
2022-10-13T08:54:51.260Z,20.26
2022-10-13T08:57:54.475Z,20.54
2022-10-13T09:01:07.524Z,20.28
2022-10-13T09:04:32.513Z,21.01
2022-10-13T09:07:37.638Z,20.63
2022-10-13T09:10:54.056Z,21.15
2022-10-13T09:13:58.866Z,21.04
2022-10-13T09:20:24.504Z,21.28
2022-10-13T09:23:27.568Z,21.18
2022-10-13T09:26:30.583Z,20.81
2022-10-13T09:29:33.961Z,20.90
2022-10-13T09:32:37.096Z,20.58
2022-10-13T09:35:49.523Z,20.21
2022-10-13T09:39:12.672Z,20.18
2022-10-13T09:42:24.244Z,19.97
2022-10-13T09:45:29.317Z,19.85
2022-10-13T09:48:35.960Z,20.58
2022-10-13T09:51:44.341Z,20.37
2022-10-13T09:55:00.741Z,20.55
2022-10-13T09:58:15.401Z,20.62
2022-10-13T10:01:33.467Z,20.72
2022-10-13T10:04:38.622Z,20.71
2022-10-13T10:07:41.637Z,20.65
2022-10-13T10:10:44.874Z,20.78
2022-10-13T10:13:47.937Z,20.93
2022-10-13T10:16:57.121Z,20.74
2022-10-13T10:20:38.369Z,20.72
2022-10-13T10:23:57.323Z,20.81
2022-10-13T10:27:09.515Z,20.74
2022-10-13T10:30:17.468Z,20.63
2022-10-13T10:33:22.917Z,20.63
2022-10-13T10:36:39.176Z,20.68
2022-10-13T10:39:50.516Z,20.58
2022-10-13T10:43:24.559Z,20.82
2022-10-13T10:46:32.897Z,21.05
2022-10-13T10:49:37.509Z,20.47
2022-10-13T10:52:53.236Z,20.52
2022-10-13T10:56:12.465Z,20.30
2022-10-13T10:59:25.293Z,20.48
2022-10-13T11:02:37.882Z,20.35
2022-10-13T11:06:06.253Z,20.45
2022-10-13T11:09:11.141Z,20.33
2022-10-13T11:12:20.639Z,20.60
2022-10-13T11:15:50.260Z,20.33
2022-10-13T11:18:57.754Z,20.37
2022-10-13T11:22:00.813Z,20.19
2022-10-13T11:25:25.395Z,20.30
2022-10-13T11:28:43.723Z,20.73
2022-10-13T11:31:54.103Z,20.73
2022-10-13T11:35:06.078Z,20.46
2022-10-13T11:38:23.286Z,20.70
2022-10-13T11:41:29.927Z,20.57
2022-10-13T11:44:52.414Z,20.93
2022-10-13T11:48:22.901Z,20.84
2022-10-13T11:51:58.386Z,20.49
2022-10-13T11:55:11.942Z,20.06
2022-10-13T11:58:19.517Z,19.93
2022-10-13T12:01:22.510Z,20.03
2022-10-13T12:04:28.319Z,20.21
2022-10-13T12:07:35.476Z,20.70
2022-10-13T12:10:39.954Z,20.75
2022-10-13T12:13:47.542Z,20.50
2022-10-13T12:17:01.124Z,20.38
2022-10-13T12:20:21.531Z,20.32
2022-10-13T12:23:26.401Z,20.19
2022-10-13T12:26:29.390Z,20.11
2022-10-13T12:29:37.243Z,20.01
2022-10-13T12:32:49.936Z,19.91
2022-10-13T12:35:52.966Z,20.14
2022-10-13T12:39:00.051Z,20.38
2022-10-13T12:42:04.139Z,20.56
2022-10-13T12:45:07.692Z,20.35
2022-10-13T12:48:36.136Z,20.03
2022-10-13T12:51:39.522Z,20.42
2022-10-13T12:54:52.047Z,20.22
2022-10-13T12:57:55.268Z,20.28
2022-10-13T13:01:32.073Z,20.12
2022-10-13T13:04:38.116Z,20.32
2022-10-13T13:07:41.180Z,20.37
2022-10-13T13:10:56.054Z,20.69
2022-10-13T13:14:24.509Z,20.72
2022-10-13T13:17:56.689Z,21.07
2022-10-13T13:20:57.376Z,21.23
2022-10-13T13:24:01.529Z,20.96
2022-10-13T13:27:22.164Z,21.06
2022-10-13T13:30:25.756Z,21.19
2022-10-13T13:33:30.815Z,20.36
2022-10-13T13:36:33.845Z,20.45
2022-10-13T13:39:36.934Z,20.82
2022-10-13T13:42:39.989Z,20.92
2022-10-13T13:45:43.101Z,20.95
2022-10-13T13:48:47.120Z,20.65
2022-10-13T13:51:50.149Z,20.74
2022-10-13T13:54:53.432Z,20.92
2022-10-13T13:57:57.505Z,20.91
2022-10-13T14:01:00.752Z,21.03
2022-10-13T14:04:03.832Z,20.97
2022-10-13T14:07:07.076Z,20.91
2022-10-13T14:10:12.983Z,21.00
2022-10-13T14:13:16.011Z,21.47
2022-10-13T14:16:19.113Z,21.46
2022-10-13T14:19:22.119Z,21.45
2022-10-13T14:22:25.319Z,21.31
2022-10-13T14:25:28.572Z,21.25
2022-10-13T14:28:31.724Z,21.81
2022-10-13T14:31:34.796Z,21.74
2022-10-13T14:34:37.822Z,22.09
2022-10-13T14:37:40.811Z,22.13
2022-10-13T14:40:43.854Z,21.87
2022-10-13T14:43:46.905Z,22.15
2022-10-13T14:46:49.934Z,22.31
2022-10-13T14:49:52.943Z,22.44
2022-10-13T14:52:57.421Z,22.61
2022-10-13T14:56:00.469Z,22.48
2022-10-13T14:59:06.002Z,22.44
2022-10-13T15:02:16.171Z,22.65
2022-10-13T15:05:19.215Z,23.07
2022-10-13T15:08:22.261Z,23.56
2022-10-13T15:11:26.279Z,23.80
2022-10-13T15:14:29.301Z,23.65
2022-10-13T15:17:32.600Z,23.46
2022-10-13T15:20:35.920Z,23.54
2022-10-13T15:23:39.920Z,23.48
2022-10-13T15:26:43.104Z,22.90
2022-10-13T15:29:46.099Z,23.09
2022-10-13T15:32:49.988Z,23.30
2022-10-13T15:35:53.980Z,23.50
2022-10-13T15:38:57.023Z,23.78
2022-10-13T15:42:00.182Z,23.64
2022-10-13T15:45:11.604Z,24.28
2022-10-13T15:48:14.914Z,24.79
2022-10-13T15:51:20.266Z,24.85
2022-10-13T15:54:23.400Z,25.07
2022-10-13T15:57:26.469Z,24.90
2022-10-13T16:00:31.660Z,25.33
2022-10-13T16:03:37.164Z,26.02
2022-10-13T16:06:40.204Z,25.65
2022-10-13T16:09:43.266Z,26.07
2022-10-13T16:12:49.655Z,25.52
2022-10-13T16:16:00.182Z,26.17
2022-10-13T16:19:03.649Z,26.84
2022-10-13T16:22:06.658Z,26.80
2022-10-13T16:25:10.027Z,26.48
2022-10-13T16:28:13.111Z,26.78
2022-10-13T16:31:17.669Z,27.19
2022-10-13T16:34:20.959Z,27.68
2022-10-13T16:37:24.208Z,27.45
2022-10-13T16:40:29.350Z,27.92
2022-10-13T16:43:32.608Z,28.43
2022-10-13T16:46:38.207Z,28.57
2022-10-13T16:49:41.234Z,28.00
2022-10-13T16:52:44.329Z,28.19
2022-10-13T16:55:47.445Z,29.12
2022-10-13T16:58:54.836Z,28.76
2022-10-13T17:01:58.006Z,28.20
2022-10-13T17:05:00.993Z,27.88
2022-10-13T17:08:04.301Z,28.15
2022-10-13T17:11:07.965Z,28.44
2022-10-13T17:14:11.371Z,28.27
2022-10-13T17:17:14.410Z,28.43
2022-10-13T17:20:17.538Z,29.07
2022-10-13T17:23:20.637Z,29.17
2022-10-13T17:26:23.799Z,29.33
2022-10-13T17:29:26.788Z,29.91
2022-10-13T17:32:32.939Z,29.64
2022-10-13T17:35:36.233Z,29.52
2022-10-13T17:38:39.436Z,28.77
2022-10-13T17:41:42.463Z,29.14
2022-10-13T17:44:45.541Z,29.46
2022-10-13T17:47:51.899Z,29.52
2022-10-13T17:50:54.945Z,29.37
2022-10-13T17:53:59.603Z,29.59
2022-10-13T17:57:02.825Z,29.98
2022-10-13T18:00:07.289Z,28.87
2022-10-13T18:03:10.330Z,29.03
2022-10-13T18:06:13.413Z,29.41
2022-10-13T18:09:17.597Z,29.09
2022-10-13T18:12:20.831Z,29.73
2022-10-13T18:15:23.954Z,29.66
2022-10-13T18:18:28.668Z,29.21
2022-10-13T18:21:31.841Z,28.91
2022-10-13T18:24:34.896Z,28.91
2022-10-13T18:27:37.902Z,29.53
2022-10-13T18:30:40.929Z,29.56
2022-10-13T18:33:44.494Z,29.57
2022-10-13T18:36:49.668Z,29.38
2022-10-13T18:39:52.674Z,28.94
2022-10-13T18:42:55.659Z,29.20
2022-10-13T18:46:05.412Z,29.00
2022-10-13T18:49:11.695Z,29.20
2022-10-13T18:52:14.769Z,28.89
2022-10-13T18:55:17.868Z,28.62
2022-10-13T18:58:20.988Z,29.05
2022-10-13T19:01:27.016Z,29.28
2022-10-13T19:04:32.197Z,29.43
2022-10-13T19:07:38.901Z,29.52
2022-10-13T19:10:42.262Z,29.48
2022-10-13T19:13:45.833Z,29.43
2022-10-13T19:16:48.875Z,29.17
2022-10-13T19:19:53.043Z,29.01
2022-10-13T19:22:56.079Z,29.52
2022-10-13T19:25:59.250Z,28.85
2022-10-13T19:29:11.082Z,29.11
2022-10-13T19:32:14.245Z,29.01
2022-10-13T19:35:17.317Z,29.18
2022-10-13T19:38:20.412Z,30.08
2022-10-13T19:41:24.493Z,29.86
2022-10-13T19:44:27.511Z,29.91
2022-10-13T19:47:30.577Z,29.95
2022-10-13T19:50:34.777Z,30.16
2022-10-13T19:53:39.349Z,30.11
2022-10-13T19:56:42.465Z,30.33
2022-10-13T19:59:47.801Z,29.86
2022-10-13T20:02:50.996Z,30.04
2022-10-13T20:05:54.038Z,30.07
2022-10-13T20:08:59.186Z,30.27
2022-10-13T20:12:02.244Z,30.24
2022-10-13T20:15:05.556Z,29.87
2022-10-13T20:18:10.398Z,30.06
2022-10-13T20:21:13.709Z,30.37
2022-10-13T20:24:16.709Z,30.19
2022-10-13T20:27:20.509Z,30.06
2022-10-13T20:30:25.671Z,30.19
2022-10-13T20:33:28.696Z,30.24
2022-10-13T20:36:37.572Z,30.06
2022-10-13T20:39:41.893Z,30.38
2022-10-13T20:42:50.272Z,30.25
2022-10-13T20:46:00.415Z,30.08
2022-10-13T20:49:12.265Z,29.80
2022-10-13T20:52:16.063Z,29.89
2022-10-13T20:55:19.632Z,29.87
2022-10-13T20:58:25.129Z,29.88
2022-10-13T21:01:28.207Z,30.18
2022-10-13T21:04:31.246Z,30.10
2022-10-13T21:07:34.509Z,30.08
2022-10-13T21:10:37.627Z,29.43
2022-10-13T21:13:41.827Z,29.39
2022-10-13T21:16:44.834Z,29.71
2022-10-13T21:19:47.904Z,29.56
2022-10-13T21:22:50.909Z,29.59
2022-10-13T21:25:54.002Z,29.68
2022-10-13T21:28:57.076Z,29.37
2022-10-13T21:32:00.226Z,29.59
2022-10-13T21:35:03.255Z,29.62
2022-10-13T21:38:06.403Z,29.95
2022-10-13T21:41:11.574Z,29.95
2022-10-13T21:44:14.882Z,29.76
2022-10-13T21:47:18.052Z,30.03
2022-10-13T21:50:21.278Z,29.87
2022-10-13T21:53:24.247Z,31.11
2022-10-13T21:56:28.244Z,30.20
2022-10-13T21:59:31.241Z,30.65
2022-10-13T22:02:34.256Z,30.87
2022-10-13T22:05:37.280Z,31.14
2022-10-13T22:08:41.981Z,32.89
2022-10-13T22:11:45.332Z,31.97
2022-10-13T22:14:48.481Z,32.53
2022-10-13T22:17:51.513Z,34.27
2022-10-13T22:20:54.578Z,34.38
2022-10-13T22:23:59.771Z,32.67
2022-10-13T22:27:02.875Z,30.50
2022-10-13T22:30:08.324Z,29.93
2022-10-13T22:33:11.347Z,30.17
2022-10-13T22:36:19.462Z,29.48
2022-10-13T22:39:22.635Z,29.40
2022-10-13T22:42:25.759Z,28.91
2022-10-13T22:45:28.926Z,28.69
2022-10-13T22:48:34.801Z,28.20
2022-10-13T22:51:41.633Z,28.21
2022-10-13T22:54:44.623Z,28.28
2022-10-13T22:57:47.655Z,28.10
2022-10-13T23:00:50.761Z,27.88
2022-10-13T23:03:56.016Z,28.01
2022-10-13T23:06:59.109Z,27.81
2022-10-13T23:10:02.140Z,27.59
2022-10-13T23:13:05.976Z,27.18
2022-10-13T23:16:14.969Z,26.59
2022-10-13T23:19:17.971Z,26.35
2022-10-13T23:22:21.211Z,26.26
2022-10-13T23:25:24.227Z,26.32
2022-10-13T23:28:29.363Z,26.11
2022-10-13T23:31:32.513Z,25.78
2022-10-13T23:34:35.607Z,25.74
2022-10-13T23:37:38.805Z,25.59
2022-10-13T23:40:41.929Z,25.48
2022-10-13T23:43:45.119Z,25.38
2022-10-13T23:46:48.147Z,25.33
2022-10-13T23:49:51.250Z,25.19
2022-10-13T23:52:56.531Z,25.22
2022-10-13T23:56:02.350Z,24.53
2022-10-13T23:59:05.455Z,24.27
